Time;durP1;ratioP1;P1;durP2;ratioP2;P2;SDS_P1;SDS_P2;PMS_P1;PMS_P2;Temp;Humidity;BMP_temperature;BMP_pressure;BME280_temperature;BME280_humidity;BME280_pressure;Samples;Min_cycle;Max_cycle;Signal;HPM_P1;HPM_P2
2023/10/10 00:02:20;;;;;;;103.32;60.63;;;15.70;99.90;;;;;;4951845;28;20146;-72
2023/10/10 00:04:49;;;;;;;101.22;60.05;;;15.80;99.90;;;;;;4923489;28;20051;-73
2023/10/10 00:07:17;;;;;;;102.78;60.90;;;15.80;99.90;;;;;;4918484;28;20060;-72
2023/10/10 00:09:45;;;;;;;103.25;58.95;;;15.80;99.90;;;;;;4937173;28;20564;-71
2023/10/10 00:12:17;;;;;;;109.25;63.80;;;15.80;99.90;;;;;;4935455;28;20051;-71
2023/10/10 00:14:50;;;;;;;107.13;62.72;;;15.80;99.90;;;;;;4926253;28;20059;-71
2023/10/10 00:17:17;;;;;;;116.40;69.47;;;15.80;99.90;;;;;;4933737;28;20149;-72
2023/10/10 00:19:54;;;;;;;118.78;66.30;;;15.80;99.90;;;;;;4936358;28;20153;-72
2023/10/10 00:22:35;;;;;;;119.10;66.68;;;15.70;99.90;;;;;;4935578;28;20163;-73
2023/10/10 00:25:12;;;;;;;106.72;64.25;;;15.70;99.90;;;;;;4935655;28;20039;-74
2023/10/10 00:27:48;;;;;;;103.25;61.58;;;15.70;99.90;;;;;;4900103;28;20051;-73
2023/10/10 00:30:16;;;;;;;105.78;58.97;;;15.70;99.90;;;;;;4915581;28;20054;-71
2023/10/10 00:32:45;;;;;;;98.88;54.90;;;15.70;99.90;;;;;;4921996;28;20081;-72
2023/10/10 00:35:12;;;;;;;97.55;56.25;;;15.70;99.90;;;;;;4933809;28;20070;-73
2023/10/10 00:37:48;;;;;;;106.65;63.63;;;15.70;99.90;;;;;;4919493;28;20051;-73
2023/10/10 00:40:29;;;;;;;120.47;62.75;;;15.70;99.90;;;;;;4931507;28;20142;-72
2023/10/10 00:42:58;;;;;;;118.80;64.03;;;15.80;99.90;;;;;;4920032;28;20111;-72
2023/10/10 00:45:31;;;;;;;111.50;64.10;;;15.80;99.90;;;;;;4915920;28;20054;-73
2023/10/10 00:48:00;;;;;;;106.43;59.92;;;15.70;99.90;;;;;;4923128;28;20063;-73
2023/10/10 00:50:27;;;;;;;108.07;59.85;;;15.70;99.90;;;;;;4932952;28;20051;-71
2023/10/10 00:53:00;;;;;;;98.10;56.72;;;15.70;99.90;;;;;;4918311;29;20051;-73
2023/10/10 00:55:33;;;;;;;94.25;56.95;;;15.70;99.90;;;;;;4932348;28;20043;-73
2023/10/10 00:58:01;;;;;;;97.40;56.47;;;15.60;99.90;;;;;;4937392;28;20047;-72
2023/10/10 01:00:30;;;;;;;93.57;54.72;;;15.60;99.90;;;;;;4903808;28;20043;-72
2023/10/10 01:03:14;;;;;;;98.85;55.03;;;15.60;99.90;;;;;;4931203;28;20134;-73
2023/10/10 01:05:41;;;;;;;94.00;55.05;;;15.70;99.90;;;;;;4916625;28;20047;-73
2023/10/10 01:08:08;;;;;;;94.07;54.95;;;15.70;99.90;;;;;;4936765;28;20048;-72
2023/10/10 01:10:48;;;;;;;84.20;50.40;;;15.60;99.90;;;;;;4918006;28;20051;-73
2023/10/10 01:13:15;;;;;;;98.40;53.08;;;15.70;99.90;;;;;;4936353;28;20059;-73
2023/10/10 01:15:44;;;;;;;95.88;53.95;;;15.60;99.90;;;;;;4931538;28;20719;-73
2023/10/10 01:18:14;;;;;;;94.40;53.15;;;15.60;99.90;;;;;;4939446;28;20253;-74
2023/10/10 01:20:51;;;;;;;91.90;53.63;;;15.60;99.90;;;;;;4916691;28;20059;-73
2023/10/10 01:23:26;;;;;;;101.22;55.60;;;15.60;99.90;;;;;;4922271;28;20828;-72
2023/10/10 01:25:56;;;;;;;105.75;57.53;;;15.70;99.90;;;;;;4919166;28;20047;-73
2023/10/10 01:28:23;;;;;;;115.47;60.55;;;15.60;99.90;;;;;;4916625;28;20086;-73
2023/10/10 01:33:25;;;;;;;100.70;56.88;;;15.60;99.90;;;;;;4934247;28;20147;-73
2023/10/10 01:36:03;;;;;;;110.60;57.55;;;15.60;99.90;;;;;;4925006;28;20055;-73
2023/10/10 01:38:59;;;;;;;102.53;57.72;;;15.60;99.90;;;;;;4933860;28;20686;-72
2023/10/10 01:42:01;;;;;;;104.35;55.38;;;15.60;99.90;;;;;;4922054;28;20040;-72
2023/10/10 01:44:22;;;;;;;120.55;56.45;;;15.60;99.90;;;;;;4929303;28;20059;-71
2023/10/10 01:46:53;;;;;;;115.82;57.75;;;15.60;99.90;;;;;;4941404;28;20050;-72
2023/10/10 01:49:21;;;;;;;97.13;55.97;;;15.60;99.90;;;;;;4923813;28;20058;-72
2023/10/10 01:52:13;;;;;;;110.72;57.60;;;15.60;99.90;;;;;;4921290;28;20043;-71
2023/10/10 01:54:41;;;;;;;107.07;56.30;;;15.60;99.90;;;;;;4936150;28;20094;-72
2023/10/10 01:57:10;;;;;;;118.68;60.10;;;15.60;99.90;;;;;;4940787;28;20707;-72
2023/10/10 01:59:38;;;;;;;110.20;57.97;;;15.50;99.90;;;;;;4918574;28;20039;-72
2023/10/10 02:02:09;;;;;;;130.90;65.90;;;15.60;99.90;;;;;;4926093;28;20039;-72
2023/10/10 02:04:36;;;;;;;123.15;65.18;;;15.50;99.90;;;;;;4922374;28;20047;-72
2023/10/10 02:07:16;;;;;;;135.20;68.90;;;15.60;99.90;;;;;;4936732;28;20051;-72
2023/10/10 02:09:43;;;;;;;149.57;70.47;;;15.50;99.90;;;;;;4921241;28;20130;-72
2023/10/10 02:12:16;;;;;;;144.50;69.10;;;15.60;99.90;;;;;;4910803;28;20046;-72
2023/10/10 02:14:44;;;;;;;135.98;69.25;;;15.60;99.90;;;;;;4916181;28;20054;-72
2023/10/10 02:17:27;;;;;;;124.93;65.80;;;15.50;99.90;;;;;;4924630;28;20047;-72
2023/10/10 02:19:59;;;;;;;129.88;66.93;;;15.40;99.90;;;;;;4939404;28;20549;-72
2023/10/10 02:22:47;;;;;;;138.35;70.13;;;15.50;99.90;;;;;;4920029;28;20425;-71
2023/10/10 02:27:55;;;;;;;126.35;65.30;;;15.40;99.90;;;;;;4939145;28;20043;-74
2023/10/10 02:30:34;;;;;;;143.85;68.68;;;15.40;99.90;;;;;;4938036;28;20589;-70
2023/10/10 02:33:24;;;;;;;140.40;69.70;;;15.40;99.90;;;;;;4937464;28;20103;-71
2023/10/10 02:35:59;;;;;;;136.38;70.10;;;15.40;99.90;;;;;;4918825;28;20462;-71
2023/10/10 02:38:32;;;;;;;140.32;64.55;;;15.30;99.90;;;;;;4914525;28;20048;-70
2023/10/10 02:46:38;;;;;;;133.25;70.28;;;15.30;99.90;;;;;;4932278;28;20050;-71
2023/10/10 02:49:12;;;;;;;151.20;73.97;;;15.30;99.90;;;;;;4939152;28;20098;-71
2023/10/10 02:51:43;;;;;;;148.75;73.97;;;15.40;99.90;;;;;;4915086;28;20047;-71
2023/10/10 02:56:59;;;;;;;150.95;75.13;;;15.30;99.90;;;;;;4917594;28;20051;-71
2023/10/10 02:59:38;;;;;;;137.90;69.90;;;15.30;99.90;;;;;;4912940;28;20454;-71
2023/10/10 03:02:24;;;;;;;146.13;70.40;;;15.30;99.90;;;;;;4902332;29;20482;-72
2023/10/10 03:07:28;;;;;;;145.18;71.93;;;15.30;99.90;;;;;;4941556;28;20614;-70
2023/10/10 03:12:31;;;;;;;138.70;66.57;;;15.20;99.90;;;;;;4931595;28;19930;-72
2023/10/10 03:15:27;;;;;;;137.05;70.07;;;15.20;99.90;;;;;;4936536;28;20043;-71
2023/10/10 03:20:38;;;;;;;130.43;66.03;;;15.20;99.90;;;;;;4931023;28;20138;-74
2023/10/10 03:26:04;;;;;;;135.43;65.63;;;15.20;99.90;;;;;;4935262;28;20048;-71
2023/10/10 03:28:41;;;;;;;131.05;65.45;;;15.20;99.90;;;;;;4898061;28;20075;-71
2023/10/10 03:31:23;;;;;;;133.43;68.38;;;15.20;99.90;;;;;;4937213;28;20138;-72
2023/10/10 03:34:11;;;;;;;144.05;70.15;;;15.20;99.90;;;;;;4914117;28;20703;-71
2023/10/10 03:36:45;;;;;;;142.30;69.10;;;15.20;99.90;;;;;;4912257;28;20055;-71
2023/10/10 05:24:08;;;;;;;141.15;63.00;;;14.80;99.90;;;;;;4917561;28;20119;-73
2023/10/10 05:26:46;;;;;;;150.63;68.55;;;14.70;99.90;;;;;;4920211;28;20058;-73
2023/10/10 05:29:19;;;;;;;162.65;68.70;;;14.70;99.90;;;;;;4941049;28;20058;-71
2023/10/10 05:31:47;;;;;;;166.63;70.72;;;14.80;99.90;;;;;;4916244;28;20052;-72
2023/10/10 05:34:16;;;;;;;191.00;80.47;;;14.80;99.90;;;;;;4930386;28;20125;-74
2023/10/10 05:36:46;;;;;;;181.35;76.90;;;14.80;99.90;;;;;;4914332;28;20510;-74
2023/10/10 05:39:17;;;;;;;198.88;78.95;;;14.80;99.90;;;;;;4918404;28;20047;-76
2023/10/10 05:41:44;;;;;;;207.35;80.85;;;14.80;99.90;;;;;;4914514;28;20054;-74
2023/10/10 05:44:14;;;;;;;214.05;83.05;;;14.80;99.90;;;;;;4943651;28;20055;-76
2023/10/10 05:46:42;;;;;;;223.45;88.88;;;14.80;99.90;;;;;;4935880;28;20043;-74
2023/10/10 05:49:09;;;;;;;229.63;88.60;;;14.80;99.90;;;;;;4935477;28;20138;-76
2023/10/10 05:51:36;;;;;;;240.30;91.43;;;14.80;99.90;;;;;;4919759;28;20047;-75
2023/10/10 05:54:03;;;;;;;249.23;93.88;;;14.80;99.90;;;;;;4902700;28;20078;-75
2023/10/10 05:56:30;;;;;;;244.98;93.25;;;14.80;99.90;;;;;;4911519;29;20125;-76
2023/10/10 05:58:57;;;;;;;237.13;92.25;;;14.70;99.90;;;;;;4931464;28;20040;-75
2023/10/10 06:01:24;;;;;;;241.63;92.05;;;14.70;99.90;;;;;;4915125;29;20083;-74
2023/10/10 06:03:51;;;;;;;245.00;90.55;;;14.70;99.90;;;;;;4919392;28;20047;-75
2023/10/10 06:06:18;;;;;;;248.73;92.70;;;14.70;99.90;;;;;;4907236;28;20043;-75
2023/10/10 06:08:45;;;;;;;247.52;96.82;;;14.80;99.90;;;;;;4932065;28;20055;-75
2023/10/10 06:11:14;;;;;;;237.20;95.97;;;14.80;99.90;;;;;;4919053;29;20055;-74
2023/10/10 06:13:43;;;;;;;234.23;94.70;;;14.80;99.90;;;;;;4933024;28;20047;-74
2023/10/10 06:16:13;;;;;;;242.93;95.18;;;14.80;99.90;;;;;;4931700;28;20095;-74
2023/10/10 06:18:46;;;;;;;232.02;95.45;;;14.80;99.90;;;;;;4912811;28;20047;-74
2023/10/10 06:21:18;;;;;;;224.52;91.55;;;14.80;99.90;;;;;;4923418;28;20049;-74
2023/10/10 06:23:45;;;;;;;226.50;94.68;;;14.80;99.90;;;;;;4929803;28;20050;-76
2023/10/10 06:26:12;;;;;;;202.25;89.13;;;14.80;99.90;;;;;;4933684;28;20454;-75
2023/10/10 06:28:47;;;;;;;203.02;88.82;;;14.80;99.90;;;;;;4936043;28;20082;-75
2023/10/10 06:31:19;;;;;;;207.10;88.13;;;14.80;99.90;;;;;;4931669;28;20051;-75
2023/10/10 06:33:51;;;;;;;193.82;86.22;;;14.90;99.90;;;;;;4919293;28;20182;-74
2023/10/10 06:41:39;;;;;;;152.23;77.85;;;14.90;99.90;;;;;;4937410;28;20066;-75
2023/10/10 06:44:17;;;;;;;148.15;75.25;;;14.90;99.90;;;;;;4935925;28;20154;-75
2023/10/10 06:46:48;;;;;;;143.80;73.30;;;15.00;99.90;;;;;;4938728;28;20040;-76
2023/10/10 06:49:16;;;;;;;144.05;71.22;;;15.10;99.90;;;;;;4925355;28;20618;-75
2023/10/10 06:51:42;;;;;;;141.65;71.00;;;15.10;99.90;;;;;;4935688;28;20493;-74
2023/10/10 06:54:19;;;;;;;145.52;75.80;;;15.10;99.90;;;;;;4925596;28;20082;-75
2023/10/10 06:59:27;;;;;;;130.02;70.03;;;15.20;99.90;;;;;;4923135;29;20040;-75
2023/10/10 07:01:59;;;;;;;132.63;66.40;;;15.20;99.90;;;;;;4927879;28;20170;-76
2023/10/10 07:04:27;;;;;;;141.77;72.30;;;15.20;99.90;;;;;;4920877;28;20055;-76
2023/10/10 07:07:06;;;;;;;139.55;68.60;;;15.30;99.90;;;;;;4918094;28;20566;-76
2023/10/10 07:09:36;;;;;;;134.82;68.07;;;15.30;99.90;;;;;;4907283;29;20074;-76
2023/10/10 07:12:14;;;;;;;140.52;70.30;;;15.30;99.90;;;;;;4917138;28;20150;-76
2023/10/10 07:14:53;;;;;;;128.43;68.57;;;15.30;99.90;;;;;;4925874;28;20130;-76
2023/10/10 07:17:27;;;;;;;141.40;70.35;;;15.30;99.90;;;;;;4939035;28;20221;-75
2023/10/10 07:22:28;;;;;;;122.75;66.45;;;15.30;99.90;;;;;;4929623;29;20077;-77
2023/10/10 07:25:06;;;;;;;136.65;71.95;;;15.30;99.90;;;;;;4935234;28;20105;-74
2023/10/10 07:27:39;;;;;;;122.60;65.55;;;15.40;99.90;;;;;;4943491;28;20137;-75
2023/10/10 07:30:16;;;;;;;118.88;63.85;;;15.40;99.90;;;;;;4916063;28;22096;-73
2023/10/10 07:32:48;;;;;;;125.78;68.22;;;15.40;99.90;;;;;;4923812;28;20059;-75
2023/10/10 07:35:16;;;;;;;136.75;69.68;;;15.50;99.90;;;;;;4936232;28;20043;-75
2023/10/10 07:37:44;;;;;;;128.80;66.60;;;15.50;99.90;;;;;;4913469;28;20047;-75
2023/10/10 07:42:38;;;;;;;111.70;62.55;;;15.50;99.90;;;;;;4938323;28;20055;-74
2023/10/10 07:45:15;;;;;;;112.03;59.35;;;15.60;99.90;;;;;;4934128;28;20059;-73
2023/10/10 07:50:34;;;;;;;105.43;57.28;;;15.80;99.90;;;;;;4938350;28;20057;-73
2023/10/10 07:53:06;;;;;;;105.45;60.15;;;15.90;99.90;;;;;;4933718;28;20055;-76
2023/10/10 07:55:53;;;;;;;106.90;58.70;;;15.90;99.90;;;;;;4925179;29;20059;-74
2023/10/10 07:58:24;;;;;;;90.10;52.80;;;15.90;99.90;;;;;;4928900;29;20057;-75
2023/10/10 08:01:09;;;;;;;87.57;52.83;;;16.10;99.90;;;;;;4907765;28;20070;-75
2023/10/10 08:03:43;;;;;;;88.50;50.58;;;16.30;99.90;;;;;;4940991;28;20106;-73
2023/10/10 08:06:16;;;;;;;84.27;53.83;;;16.50;99.90;;;;;;4915922;28;20066;-75
2023/10/10 08:08:44;;;;;;;76.22;50.13;;;16.80;99.90;;;;;;4927129;28;20051;-75
2023/10/10 08:11:24;;;;;;;82.50;54.92;;;17.10;99.90;;;;;;4907661;28;21419;-75
2023/10/10 08:13:51;;;;;;;71.88;50.85;;;17.20;99.90;;;;;;4917701;28;20655;-74
2023/10/10 08:16:22;;;;;;;71.13;50.28;;;17.40;99.90;;;;;;4922817;29;20058;-75
2023/10/10 08:18:52;;;;;;;63.67;47.47;;;17.60;99.90;;;;;;4916644;28;20078;-75
2023/10/10 08:21:23;;;;;;;63.40;50.60;;;17.80;99.90;;;;;;4935859;28;20035;-77
2023/10/10 08:23:56;;;;;;;63.28;50.45;;;17.90;99.90;;;;;;4942068;28;20051;-75
2023/10/10 08:26:29;;;;;;;66.00;49.03;;;17.90;99.90;;;;;;4918631;29;20234;-77
2023/10/10 08:28:56;;;;;;;69.38;48.30;;;18.10;99.90;;;;;;4934679;28;20047;-76
2023/10/10 08:31:23;;;;;;;62.22;48.55;;;18.20;99.90;;;;;;4931036;29;20051;-77
2023/10/10 08:33:50;;;;;;;61.42;48.40;;;18.40;99.90;;;;;;4949953;28;20047;-76
2023/10/10 08:36:25;;;;;;;61.80;49.47;;;18.40;99.90;;;;;;4948003;28;20753;-76
2023/10/10 08:38:54;;;;;;;65.47;46.53;;;18.30;99.90;;;;;;4948394;28;20111;-75
2023/10/10 08:41:23;;;;;;;56.90;47.55;;;18.30;99.90;;;;;;4948831;28;20051;-76
2023/10/10 08:44:01;;;;;;;64.30;46.22;;;18.30;99.90;;;;;;4953054;28;20063;-75
2023/10/10 08:46:30;;;;;;;53.38;46.75;;;18.40;99.90;;;;;;4944570;29;20077;-75
2023/10/10 08:48:59;;;;;;;58.65;46.42;;;18.50;99.90;;;;;;4938484;28;20205;-76
2023/10/10 08:51:32;;;;;;;52.72;43.63;;;18.60;99.90;;;;;;4929039;29;20051;-74
2023/10/10 08:54:10;;;;;;;47.08;42.05;;;18.60;99.90;;;;;;4931690;28;20047;-78
2023/10/10 08:56:41;;;;;;;44.42;38.55;;;18.60;99.90;;;;;;4930166;29;20059;-73
2023/10/10 08:59:12;;;;;;;42.92;38.30;;;18.70;99.90;;;;;;4935751;28;20043;-76
2023/10/10 09:01:42;;;;;;;43.60;37.45;;;18.80;99.90;;;;;;4939900;28;20055;-75
2023/10/10 09:04:17;;;;;;;43.00;38.47;;;18.90;99.90;;;;;;4923240;28;20044;-75
2023/10/10 09:09:39;;;;;;;41.13;36.22;;;18.90;99.90;;;;;;4933456;28;20047;-76
2023/10/10 09:12:20;;;;;;;39.30;34.30;;;18.80;99.90;;;;;;4915012;28;20621;-76
2023/10/10 09:15:16;;;;;;;41.42;37.30;;;18.70;99.90;;;;;;4937521;28;20040;-74
2023/10/10 09:17:45;;;;;;;44.42;38.58;;;18.80;99.90;;;;;;4917608;28;20058;-75
2023/10/10 09:20:28;;;;;;;43.50;38.90;;;19.10;99.90;;;;;;4934535;28;20043;-75
2023/10/10 09:23:11;;;;;;;41.63;37.53;;;19.30;99.90;;;;;;4919286;28;20085;-75
2023/10/10 09:25:48;;;;;;;43.60;39.00;;;19.50;99.90;;;;;;4938418;28;20047;-74
2023/10/10 09:28:18;;;;;;;42.92;38.38;;;19.60;99.90;;;;;;4927062;28;20214;-74
2023/10/10 09:31:14;;;;;;;43.25;37.88;;;19.90;99.90;;;;;;4916103;28;20051;-75
2023/10/10 09:33:45;;;;;;;;;;;20.00;99.90;;;;;;4933686;28;20134;-74
2023/10/10 09:36:15;;;;;;;41.53;36.95;;;20.00;99.90;;;;;;4912545;28;20532;-74
2023/10/10 09:38:46;;;;;;;42.55;37.60;;;20.10;99.90;;;;;;4919495;28;20126;-74
2023/10/10 09:41:28;;;;;;;40.25;36.22;;;20.20;99.90;;;;;;4929446;28;20102;-74
2023/10/10 09:50:00;;;;;;;40.80;36.42;;;20.30;99.90;;;;;;4936256;28;20050;-75
2023/10/10 09:52:49;;;;;;;39.28;34.78;;;20.30;99.90;;;;;;4919323;29;20050;-75
2023/10/10 10:09:20;;;;;;;36.60;32.78;;;20.80;99.90;;;;;;4920794;28;20139;-74
2023/10/10 10:12:03;;;;;;;35.45;32.08;;;20.70;99.90;;;;;;4917967;28;20674;-75
2023/10/10 10:14:47;;;;;;;36.38;32.67;;;20.80;99.90;;;;;;4936103;28;20134;-75
2023/10/10 10:17:19;;;;;;;36.17;32.70;;;21.00;99.90;;;;;;4918879;28;20107;-74
2023/10/10 10:19:46;;;;;;;34.60;31.52;;;21.10;99.90;;;;;;4938359;28;20043;-74
2023/10/10 10:22:21;;;;;;;31.83;28.70;;;21.10;99.90;;;;;;4935435;28;20122;-75
2023/10/10 10:25:20;;;;;;;33.83;30.50;;;21.20;99.90;;;;;;4929687;28;20051;-75
2023/10/10 10:27:49;;;;;;;32.80;29.88;;;21.00;99.90;;;;;;4940646;28;20075;-75
2023/10/10 10:32:46;;;;;;;32.78;29.90;;;21.30;99.90;;;;;;4939108;28;20193;-75
2023/10/10 10:35:24;;;;;;;31.45;28.65;;;21.40;99.90;;;;;;4934612;28;20453;-75
2023/10/10 10:37:56;;;;;;;30.02;27.50;;;21.50;99.90;;;;;;4939916;28;20313;-74
2023/10/10 10:43:14;;;;;;;29.90;26.73;;;22.00;99.90;;;;;;4917615;28;20054;-74
2023/10/10 10:45:51;;;;;;;29.20;26.67;;;22.20;99.90;;;;;;4937625;28;20047;-73
2023/10/10 10:48:35;;;;;;;30.33;27.17;;;22.10;99.90;;;;;;4911205;28;20101;-73
2023/10/10 10:51:25;;;;;;;29.67;27.10;;;22.00;99.90;;;;;;4934077;28;20143;-73
2023/10/10 10:54:02;;;;;;;28.67;26.08;;;22.30;99.90;;;;;;4924630;28;20153;-73
2023/10/10 10:59:19;;;;;;;28.15;25.55;;;22.80;99.90;;;;;;4940709;28;20118;-73
2023/10/10 11:02:15;;;;;;;26.75;24.73;;;23.00;99.90;;;;;;4939724;28;20774;-74
2023/10/10 11:07:07;;;;;;;28.65;25.55;;;22.80;99.90;;;;;;4920219;28;20058;-75
2023/10/10 11:09:38;;;;;;;27.70;25.05;;;22.70;99.90;;;;;;4941019;28;20043;-75
2023/10/10 11:12:06;;;;;;;27.88;25.75;;;22.70;99.90;;;;;;4923292;28;20050;-74
2023/10/10 11:14:46;;;;;;;28.40;25.40;;;22.70;99.90;;;;;;4936288;28;20047;-75
2023/10/10 11:17:18;;;;;;;27.40;25.20;;;22.70;99.90;;;;;;4939708;28;20047;-74
2023/10/10 11:19:55;;;;;;;27.25;25.08;;;22.80;99.90;;;;;;4937852;28;20489;-74
2023/10/10 11:22:38;;;;;;;27.50;24.88;;;22.80;99.90;;;;;;4921331;28;20054;-74
2023/10/10 11:25:11;;;;;;;26.92;24.30;;;22.70;99.90;;;;;;4929317;28;20055;-74
2023/10/10 11:27:48;;;;;;;26.67;24.58;;;22.70;99.90;;;;;;4939029;28;20051;-74
2023/10/10 11:30:24;;;;;;;29.25;26.65;;;22.80;99.90;;;;;;4931925;28;20050;-71
2023/10/10 11:33:05;;;;;;;28.05;25.98;;;23.00;99.90;;;;;;4951881;28;20043;-74
2023/10/10 11:35:32;;;;;;;29.73;27.02;;;22.80;99.90;;;;;;4950029;28;20086;-74
2023/10/10 11:37:59;;;;;;;29.00;26.45;;;22.80;99.90;;;;;;4951636;28;20043;-74
2023/10/10 11:42:59;;;;;;;28.98;26.23;;;22.60;99.90;;;;;;4931668;28;20377;-74
2023/10/10 11:45:27;;;;;;;29.80;26.90;;;22.70;99.90;;;;;;4947262;28;21184;-74
2023/10/10 11:48:05;;;;;;;28.73;26.50;;;22.60;99.90;;;;;;4931205;28;20053;-75
2023/10/10 11:50:56;;;;;;;31.80;28.48;;;22.60;99.90;;;;;;4947425;28;20055;-74
2023/10/10 11:53:24;;;;;;;32.00;28.58;;;22.60;99.90;;;;;;4931995;28;21786;-73
2023/10/10 11:56:04;;;;;;;32.17;28.75;;;22.50;99.90;;;;;;4946982;28;20644;-73
2023/10/10 11:58:36;;;;;;;32.17;29.23;;;22.60;99.90;;;;;;4931522;28;20053;-73
2023/10/10 12:01:09;;;;;;;32.03;29.08;;;22.80;99.90;;;;;;4946904;28;20047;-74
2023/10/10 12:06:26;;;;;;;32.72;29.83;;;22.50;99.90;;;;;;4930003;28;20131;-73
2023/10/10 12:08:53;;;;;;;32.53;29.48;;;22.40;99.90;;;;;;4944903;28;20082;-73
2023/10/10 12:11:23;;;;;;;34.28;31.02;;;22.50;99.90;;;;;;4932621;28;20058;-73
2023/10/10 12:13:51;;;;;;;33.63;30.30;;;22.50;99.90;;;;;;4948171;28;20046;-74
2023/10/10 12:16:25;;;;;;;31.88;28.80;;;22.50;99.90;;;;;;4944575;28;20043;-73
2023/10/10 12:18:52;;;;;;;32.38;29.35;;;22.40;99.90;;;;;;4931226;28;20039;-73
2023/10/10 12:21:23;;;;;;;33.67;30.58;;;22.30;99.90;;;;;;4939865;28;20039;-74
2023/10/10 12:23:57;;;;;;;34.75;31.25;;;22.20;99.90;;;;;;4928931;28;20138;-73
2023/10/10 12:26:35;;;;;;;33.85;30.77;;;22.20;99.90;;;;;;4921568;28;20174;-73
2023/10/10 12:29:02;;;;;;;34.08;30.77;;;22.10;99.90;;;;;;4926329;28;20176;-73
2023/10/10 12:31:33;;;;;;;33.10;29.88;;;22.20;99.90;;;;;;4927123;28;20134;-73
2023/10/10 12:34:00;;;;;;;33.75;30.73;;;22.20;99.90;;;;;;4924832;28;20552;-73
2023/10/10 12:36:32;;;;;;;33.88;30.33;;;22.20;99.90;;;;;;4938358;28;20048;-74
2023/10/10 12:38:59;;;;;;;32.15;29.30;;;22.00;99.90;;;;;;4940858;28;20054;-72
2023/10/10 12:41:27;;;;;;;33.53;30.27;;;21.90;99.90;;;;;;4937031;28;20039;-72
2023/10/10 12:43:55;;;;;;;35.17;31.95;;;22.00;99.90;;;;;;4942223;28;20053;-73
2023/10/10 12:46:22;;;;;;;34.47;30.98;;;22.10;99.90;;;;;;4917604;28;20103;-72
2023/10/10 12:48:51;;;;;;;34.80;31.45;;;22.10;99.90;;;;;;4944387;28;20039;-72
2023/10/10 12:51:23;;;;;;;35.28;31.92;;;22.20;99.90;;;;;;4938209;28;20145;-73
2023/10/10 12:53:59;;;;;;;35.97;32.45;;;22.10;99.90;;;;;;4928594;28;20039;-73
2023/10/10 12:56:27;;;;;;;36.20;32.55;;;22.00;99.90;;;;;;4924857;28;20122;-73
2023/10/10 12:59:03;;;;;;;34.13;30.92;;;22.10;99.90;;;;;;4946655;28;20055;-73
2023/10/10 13:01:35;;;;;;;33.72;30.10;;;22.00;99.90;;;;;;4928026;28;20047;-72
2023/10/10 13:04:07;;;;;;;33.05;30.02;;;21.90;99.90;;;;;;4926396;28;20047;-72
2023/10/10 13:06:39;;;;;;;34.47;31.20;;;21.90;99.90;;;;;;4939474;28;20058;-73
2023/10/10 13:09:08;;;;;;;33.13;30.08;;;22.00;99.90;;;;;;4954857;28;20043;-72
2023/10/10 13:11:43;;;;;;;33.28;30.30;;;22.20;99.90;;;;;;4929318;28;20043;-72
2023/10/10 13:14:19;;;;;;;32.97;29.98;;;22.40;99.90;;;;;;4941617;28;20051;-72
2023/10/10 13:19:18;;;;;;;33.00;29.95;;;22.90;99.90;;;;;;4932268;28;20706;-71
2023/10/10 13:21:48;;;;;;;34.45;30.25;;;22.90;99.90;;;;;;4934519;28;20529;-71
2023/10/10 13:24:15;;;;;;;33.88;30.67;;;22.90;99.90;;;;;;4935068;28;20054;-72
2023/10/10 13:26:49;;;;;;;33.75;30.17;;;22.90;99.90;;;;;;4936240;28;20043;-73
2023/10/10 13:29:17;;;;;;;32.88;29.67;;;22.80;99.90;;;;;;4915674;28;20066;-72
2023/10/10 13:31:44;;;;;;;33.50;30.60;;;22.80;99.90;;;;;;4916832;28;20185;-72
2023/10/10 13:34:13;;;;;;;33.15;29.98;;;22.70;99.90;;;;;;4937566;28;20130;-73
2023/10/10 13:36:41;;;;;;;34.15;30.90;;;22.70;99.90;;;;;;4921628;29;20731;-72
2023/10/10 13:39:09;;;;;;;33.75;30.42;;;22.70;99.90;;;;;;4920342;28;20031;-71
2023/10/10 13:41:41;;;;;;;33.42;30.08;;;22.80;99.90;;;;;;4915659;28;20050;-72
2023/10/10 13:44:08;;;;;;;32.70;29.75;;;22.80;99.90;;;;;;4921631;28;20066;-73
2023/10/10 13:46:38;;;;;;;34.72;31.20;;;22.90;99.90;;;;;;4941178;28;21473;-72
2023/10/10 13:49:08;;;;;;;33.92;30.48;;;23.00;99.90;;;;;;4923902;28;20055;-73
2023/10/10 13:51:41;;;;;;;35.00;31.52;;;22.80;99.90;;;;;;4938217;28;20054;-72
2023/10/10 13:54:08;;;;;;;35.25;31.42;;;22.80;99.90;;;;;;4946594;28;20036;-74
2023/10/10 13:56:35;;;;;;;32.78;29.73;;;22.70;99.90;;;;;;4938720;28;20070;-73
2023/10/10 13:59:02;;;;;;;34.90;31.25;;;22.90;99.90;;;;;;4923725;28;20047;-72
2023/10/10 14:01:29;;;;;;;34.00;30.92;;;23.00;99.90;;;;;;4918907;28;20059;-72
2023/10/10 14:04:46;;;;;;;34.42;30.73;;;23.20;99.90;;;;;;4943459;28;20558;-72
2023/10/10 14:06:49;;;;;;;35.03;31.30;;;23.50;99.90;;;;;;4930380;28;20043;-73
2023/10/10 14:09:26;;;;;;;33.42;30.05;;;23.60;99.90;;;;;;4940660;28;20047;-73
2023/10/10 14:12:02;;;;;;;32.28;28.88;;;23.70;99.90;;;;;;4934331;28;20058;-72
2023/10/10 14:14:30;;;;;;;34.67;31.08;;;23.60;99.90;;;;;;4924883;28;20074;-72
2023/10/10 14:16:58;;;;;;;33.65;30.50;;;23.60;99.90;;;;;;4909764;28;20122;-72
2023/10/10 14:19:25;;;;;;;34.22;30.98;;;23.40;99.90;;;;;;4924101;28;20048;-73
2023/10/10 14:22:10;;;;;;;33.42;30.00;;;23.40;99.90;;;;;;4923228;28;20047;-73
2023/10/10 14:24:43;;;;;;;33.25;30.15;;;23.20;99.90;;;;;;4923217;28;21355;-73
2023/10/10 14:27:10;;;;;;;32.08;28.98;;;23.00;99.90;;;;;;4936756;28;20126;-72
2023/10/10 14:29:41;;;;;;;32.05;29.08;;;22.90;99.90;;;;;;4935951;28;20044;-73
2023/10/10 14:32:14;;;;;;;31.42;28.15;;;23.00;99.90;;;;;;4937832;28;20043;-73
2023/10/10 14:35:12;;;;;;;30.98;28.05;;;22.90;99.90;;;;;;4945176;28;20040;-73
2023/10/10 14:37:46;;;;;;;31.10;28.23;;;22.80;99.90;;;;;;4935681;28;20158;-73
2023/10/10 14:40:28;;;;;;;32.45;29.38;;;22.70;99.90;;;;;;4936943;28;20077;-73
2023/10/10 14:42:58;;;;;;;29.45;26.85;;;22.50;99.90;;;;;;4925574;28;20044;-73
2023/10/10 14:45:28;;;;;;;29.85;26.60;;;22.40;99.90;;;;;;4934997;28;20364;-73
2023/10/10 14:47:56;;;;;;;29.38;26.75;;;22.30;99.90;;;;;;4940610;28;20043;-73
2023/10/10 14:50:24;;;;;;;29.75;27.13;;;22.30;99.90;;;;;;4915459;28;20059;-73
2023/10/10 14:52:51;;;;;;;29.65;26.33;;;22.30;99.90;;;;;;4921457;28;20546;-73
2023/10/10 14:55:25;;;;;;;28.77;26.27;;;22.30;99.90;;;;;;4940786;28;20051;-72
2023/10/10 14:57:54;;;;;;;29.48;26.83;;;22.20;99.90;;;;;;4923584;28;20071;-73
2023/10/10 15:00:24;;;;;;;27.65;25.17;;;22.00;99.90;;;;;;4920777;28;20070;-72
2023/10/10 15:02:55;;;;;;;29.67;26.88;;;22.00;99.90;;;;;;4903836;28;20043;-72
2023/10/10 15:05:25;;;;;;;29.63;26.77;;;21.70;99.90;;;;;;4936159;28;20411;-72
2023/10/10 15:07:54;;;;;;;27.30;24.95;;;21.60;99.90;;;;;;4926420;28;20042;-72
2023/10/10 15:10:25;;;;;;;28.15;25.83;;;21.50;99.90;;;;;;4939585;28;20055;-73
2023/10/10 15:12:54;;;;;;;28.02;25.77;;;21.50;99.90;;;;;;4907158;28;20054;-72
2023/10/10 15:15:22;;;;;;;28.90;26.50;;;21.40;99.90;;;;;;4939687;28;20059;-72
2023/10/10 15:17:50;;;;;;;29.00;26.23;;;21.40;99.90;;;;;;4929392;28;20054;-73
2023/10/10 15:20:18;;;;;;;29.17;26.75;;;21.40;99.90;;;;;;4941666;28;20043;-73
2023/10/10 15:22:46;;;;;;;28.23;25.73;;;21.40;99.90;;;;;;4937429;28;20056;-73
2023/10/10 15:25:15;;;;;;;28.15;25.55;;;21.40;99.90;;;;;;4938943;28;20134;-73
2023/10/10 15:27:42;;;;;;;28.73;26.10;;;21.40;99.90;;;;;;4906356;28;21738;-73
2023/10/10 15:30:09;;;;;;;29.05;26.30;;;21.50;99.90;;;;;;4926623;28;20110;-72
2023/10/10 15:32:46;;;;;;;28.48;25.90;;;21.40;99.90;;;;;;4937437;28;20131;-72
2023/10/10 15:35:15;;;;;;;29.80;26.90;;;21.30;99.90;;;;;;4939837;28;20049;-73
2023/10/10 15:37:42;;;;;;;29.13;26.67;;;21.40;99.90;;;;;;4923845;28;20051;-74
2023/10/10 15:40:13;;;;;;;29.05;26.05;;;21.40;99.90;;;;;;4912748;29;20630;-74
2023/10/10 15:42:40;;;;;;;28.23;25.90;;;21.40;99.90;;;;;;4938117;28;20055;-74
2023/10/10 15:45:08;;;;;;;28.45;26.10;;;21.40;99.90;;;;;;4927604;28;20130;-74
2023/10/10 15:47:35;;;;;;;27.65;25.00;;;21.40;99.90;;;;;;4941312;28;20142;-73
2023/10/10 15:50:02;;;;;;;29.75;27.35;;;21.30;99.90;;;;;;4947749;28;20122;-72
2023/10/10 15:52:33;;;;;;;27.85;25.00;;;21.30;99.90;;;;;;4932301;28;20071;-73
2023/10/10 15:55:05;;;;;;;26.77;24.20;;;21.20;99.90;;;;;;4933065;28;20059;-72
2023/10/10 15:57:31;;;;;;;26.38;24.00;;;21.00;99.90;;;;;;4933204;28;20170;-72